sensor_id;sensor_type;location;lat;lon;timestamp;pressure;altitude;pressure_sealevel;temperature;humidity
1832;BME280;1680;48.106;11.708;2022-12-07T00:01:48;95456.69;;;4.46;100.00
1832;BME280;1680;48.106;11.708;2022-12-07T00:04:18;95452.25;;;4.40;100.00
1832;BME280;1680;48.106;11.708;2022-12-07T00:06:46;95447.44;;;4.37;100.00
1832;BME280;1680;48.106;11.708;2022-12-07T00:09:18;95457.00;;;4.37;100.00
1832;BME280;1680;48.106;11.708;2022-12-07T00:11:49;95454.97;;;4.53;100.00
1832;BME280;1680;48.106;11.708;2022-12-07T00:14:17;95450.66;;;4.39;100.00
1832;BME280;1680;48.106;11.708;2022-12-07T00:16:45;95449.34;;;4.29;100.00
1832;BME280;1680;48.106;11.708;2022-12-07T00:19:13;95447.38;;;4.31;100.00
1832;BME280;1680;48.106;11.708;2022-12-07T00:21:40;95442.13;;;4.24;100.00
1832;BME280;1680;48.106;11.708;2022-12-07T00:24:08;95428.28;;;4.17;100.00
1832;BME280;1680;48.106;11.708;2022-12-07T00:26:38;95442.50;;;4.21;100.00
1832;BME280;1680;48.106;11.708;2022-12-07T00:29:08;95435.78;;;4.12;100.00
1832;BME280;1680;48.106;11.708;2022-12-07T00:31:36;95441.31;;;4.24;100.00
1832;BME280;1680;48.106;11.708;2022-12-07T00:34:05;95432.84;;;4.15;100.00
1832;BME280;1680;48.106;11.708;2022-12-07T00:36:32;95433.34;;;4.25;100.00
1832;BME280;1680;48.106;11.708;2022-12-07T00:39:00;95436.81;;;4.11;100.00
1832;BME280;1680;48.106;11.708;2022-12-07T00:41:28;95438.78;;;4.09;100.00
1832;BME280;1680;48.106;11.708;2022-12-07T00:43:57;95433.59;;;4.09;100.00
1832;BME280;1680;48.106;11.708;2022-12-07T00:46:27;95437.53;;;4.05;100.00
1832;BME280;1680;48.106;11.708;2022-12-07T00:48:54;95432.78;;;4.09;100.00
1832;BME280;1680;48.106;11.708;2022-12-07T00:51:23;95433.72;;;4.22;100.00
1832;BME280;1680;48.106;11.708;2022-12-07T00:53:51;95418.81;;;4.10;100.00
1832;BME280;1680;48.106;11.708;2022-12-07T00:56:21;95436.38;;;4.29;100.00
1832;BME280;1680;48.106;11.708;2022-12-07T00:58:52;95424.44;;;4.13;100.00
1832;BME280;1680;48.106;11.708;2022-12-07T01:01:22;95439.44;;;4.39;100.00
1832;BME280;1680;48.106;11.708;2022-12-07T01:03:50;95433.34;;;4.25;100.00
1832;BME280;1680;48.106;11.708;2022-12-07T01:06:19;95425.25;;;4.14;100.00
1832;BME280;1680;48.106;11.708;2022-12-07T01:08:46;95428.50;;;4.01;100.00
1832;BME280;1680;48.106;11.708;2022-12-07T01:11:15;95427.09;;;3.99;100.00
1832;BME280;1680;48.106;11.708;2022-12-07T01:13:43;95430.47;;;3.99;100.00
1832;BME280;1680;48.106;11.708;2022-12-07T01:16:13;95440.56;;;3.88;100.00
1832;BME280;1680;48.106;11.708;2022-12-07T01:18:42;95445.69;;;3.82;100.00
1832;BME280;1680;48.106;11.708;2022-12-07T01:21:13;95445.00;;;3.94;100.00
1832;BME280;1680;48.106;11.708;2022-12-07T01:23:41;95448.78;;;3.91;100.00
1832;BME280;1680;48.106;11.708;2022-12-07T01:26:11;95432.47;;;4.18;100.00
1832;BME280;1680;48.106;11.708;2022-12-07T01:28:39;95436.75;;;4.26;100.00
1832;BME280;1680;48.106;11.708;2022-12-07T01:31:08;95435.88;;;4.19;100.00
1832;BME280;1680;48.106;11.708;2022-12-07T01:33:37;95437.28;;;4.00;100.00
1832;BME280;1680;48.106;11.708;2022-12-07T01:36:08;95444.94;;;3.87;100.00
1832;BME280;1680;48.106;11.708;2022-12-07T01:38:40;95440.56;;;3.88;100.00
1832;BME280;1680;48.106;11.708;2022-12-07T01:41:07;95431.19;;;3.87;100.00
1832;BME280;1680;48.106;11.708;2022-12-07T01:43:35;95437.59;;;4.12;100.00
1832;BME280;1680;48.106;11.708;2022-12-07T01:46:03;95437.28;;;4.00;100.00
1832;BME280;1680;48.106;11.708;2022-12-07T01:48:32;95420.97;;;3.85;100.00
1832;BME280;1680;48.106;11.708;2022-12-07T01:51:03;95440.25;;;3.97;100.00
1832;BME280;1680;48.106;11.708;2022-12-07T01:53:35;95431.88;;;3.95;100.00
1832;BME280;1680;48.106;11.708;2022-12-07T01:56:03;95429.97;;;4.04;100.00
1832;BME280;1680;48.106;11.708;2022-12-07T01:58:31;95417.72;;;3.98;100.00
1832;BME280;1680;48.106;11.708;2022-12-07T02:00:58;95422.84;;;3.91;100.00
1832;BME280;1680;48.106;11.708;2022-12-07T02:03:30;95414.94;;;4.20;100.00
1832;BME280;1680;48.106;11.708;2022-12-07T02:05:59;95427.47;;;3.96;100.00
1832;BME280;1680;48.106;11.708;2022-12-07T02:08:26;95433.78;;;3.87;100.00
1832;BME280;1680;48.106;11.708;2022-12-07T02:10:55;95435.91;;;3.83;100.00
1832;BME280;1680;48.106;11.708;2022-12-07T02:13:24;95430.56;;;3.85;100.00
1832;BME280;1680;48.106;11.708;2022-12-07T02:16:19;95424.31;;;4.00;100.00
1832;BME280;1680;48.106;11.708;2022-12-07T02:19:03;95423.88;;;3.97;100.00
1832;BME280;1680;48.106;11.708;2022-12-07T02:21:40;95392.22;;;3.81;100.00
1832;BME280;1680;48.106;11.708;2022-12-07T02:24:27;95425.69;;;3.96;100.00
1832;BME280;1680;48.106;11.708;2022-12-07T02:27:27;95422.47;;;3.94;100.00
1832;BME280;1680;48.106;11.708;2022-12-07T02:29:59;95419.56;;;4.04;100.00
1832;BME280;1680;48.106;11.708;2022-12-07T02:32:34;95415.91;;;3.98;100.00
1832;BME280;1680;48.106;11.708;2022-12-07T02:35:06;95411.53;;;3.99;100.00
1832;BME280;1680;48.106;11.708;2022-12-07T02:37:37;95412.88;;;3.95;100.00
1832;BME280;1680;48.106;11.708;2022-12-07T02:40:10;95409.00;;;4.05;100.00
1832;BME280;1680;48.106;11.708;2022-12-07T02:42:42;95413.56;;;4.03;100.00
1832;BME280;1680;48.106;11.708;2022-12-07T02:45:14;95407.69;;;3.95;100.00
1832;BME280;1680;48.106;11.708;2022-12-07T02:47:43;95402.22;;;4.04;100.00
1832;BME280;1680;48.106;11.708;2022-12-07T02:50:11;95410.41;;;4.08;100.00
1832;BME280;1680;48.106;11.708;2022-12-07T02:52:38;95416.47;;;3.94;100.00
1832;BME280;1680;48.106;11.708;2022-12-07T02:55:06;95398.13;;;3.95;100.00
1832;BME280;1680;48.106;11.708;2022-12-07T02:57:49;95398.72;;;3.97;100.00
1832;BME280;1680;48.106;11.708;2022-12-07T03:00:22;95406.34;;;3.99;100.00
1832;BME280;1680;48.106;11.708;2022-12-07T03:02:54;95410.41;;;4.08;100.00
1832;BME280;1680;48.106;11.708;2022-12-07T03:05:54;95415.97;;;4.05;100.00
1832;BME280;1680;48.106;11.708;2022-12-07T03:08:31;95389.75;;;3.93;100.00
1832;BME280;1680;48.106;11.708;2022-12-07T03:11:03;95408.28;;;4.11;100.00
1832;BME280;1680;48.106;11.708;2022-12-07T03:13:34;95391.97;;;3.96;100.00
1832;BME280;1680;48.106;11.708;2022-12-07T03:16:11;95410.25;;;4.09;100.00
1832;BME280;1680;48.106;11.708;2022-12-07T03:18:46;95409.25;;;4.10;100.00
1832;BME280;1680;48.106;11.708;2022-12-07T03:21:17;95410.09;;;4.17;100.00
1832;BME280;1680;48.106;11.708;2022-12-07T03:23:48;95408.50;;;4.16;100.00
1832;BME280;1680;48.106;11.708;2022-12-07T03:26:18;95411.72;;;4.18;100.00
1832;BME280;1680;48.106;11.708;2022-12-07T03:28:53;95412.97;;;4.22;100.00
1832;BME280;1680;48.106;11.708;2022-12-07T03:31:26;95400.09;;;4.14;100.00
1832;BME280;1680;48.106;11.708;2022-12-07T03:34:01;95403.50;;;4.15;100.00
1832;BME280;1680;48.106;11.708;2022-12-07T03:36:33;95406.66;;;4.10;100.00
1832;BME280;1680;48.106;11.708;2022-12-07T03:39:09;95399.09;;;4.15;100.00
1832;BME280;1680;48.106;11.708;2022-12-07T03:41:40;95392.63;;;4.26;100.00
1832;BME280;1680;48.106;11.708;2022-12-07T03:44:07;95402.06;;;4.12;100.00
1832;BME280;1680;48.106;11.708;2022-12-07T03:46:43;95396.88;;;4.12;100.00
1832;BME280;1680;48.106;11.708;2022-12-07T03:49:15;95396.09;;;4.12;100.00
1832;BME280;1680;48.106;11.708;2022-12-07T03:51:51;95397.59;;;4.00;100.00
1832;BME280;1680;48.106;11.708;2022-12-07T03:54:24;95401.41;;;4.04;100.00
1832;BME280;1680;48.106;11.708;2022-12-07T03:56:55;95396.16;;;4.18;100.00
1832;BME280;1680;48.106;11.708;2022-12-07T03:59:23;95386.75;;;4.17;100.00
1832;BME280;1680;48.106;11.708;2022-12-07T04:01:53;95390.69;;;4.13;100.00
1832;BME280;1680;48.106;11.708;2022-12-07T04:04:22;95389.91;;;4.13;100.00
1832;BME280;1680;48.106;11.708;2022-12-07T04:06:50;95386.28;;;4.07;100.00
1832;BME280;1680;48.106;11.708;2022-12-07T04:09:17;95389.25;;;4.04;100.00
1832;BME280;1680;48.106;11.708;2022-12-07T04:11:44;95389.09;;;4.12;100.00
1832;BME280;1680;48.106;11.708;2022-12-07T04:14:11;95381.00;;;4.22;100.00
1832;BME280;1680;48.106;11.708;2022-12-07T04:16:45;95388.06;;;4.07;100.00
1832;BME280;1680;48.106;11.708;2022-12-07T04:19:14;95386.06;;;4.09;100.00
1832;BME280;1680;48.106;11.708;2022-12-07T04:21:41;95364.78;;;3.92;100.00
1832;BME280;1680;48.106;11.708;2022-12-07T04:24:09;95385.91;;;4.10;100.00
1832;BME280;1680;48.106;11.708;2022-12-07T04:26:36;95378.84;;;4.04;100.00
1832;BME280;1680;48.106;11.708;2022-12-07T04:29:03;95389.38;;;3.96;100.00
1832;BME280;1680;48.106;11.708;2022-12-07T04:31:30;95391.22;;;4.02;100.00
1832;BME280;1680;48.106;11.708;2022-12-07T04:33:57;95395.78;;;4.21;100.00
1832;BME280;1680;48.106;11.708;2022-12-07T04:36:26;95390.22;;;4.24;100.00
1832;BME280;1680;48.106;11.708;2022-12-07T04:38:54;95394.78;;;4.22;100.00
1832;BME280;1680;48.106;11.708;2022-12-07T04:41:23;95384.22;;;4.24;100.00
1832;BME280;1680;48.106;11.708;2022-12-07T04:43:54;95383.56;;;3.94;100.00
1832;BME280;1680;48.106;11.708;2022-12-07T04:46:21;95373.91;;;3.88;100.00
1832;BME280;1680;48.106;11.708;2022-12-07T04:48:49;95383.56;;;3.94;100.00
1832;BME280;1680;48.106;11.708;2022-12-07T04:51:19;95380.28;;;3.86;100.00
1832;BME280;1680;48.106;11.708;2022-12-07T04:53:48;95385.47;;;3.86;100.00
1832;BME280;1680;48.106;11.708;2022-12-07T04:56:16;95385.16;;;4.16;100.00
1832;BME280;1680;48.106;11.708;2022-12-07T04:58:43;95380.09;;;4.08;100.00
1832;BME280;1680;48.106;11.708;2022-12-07T05:01:12;95386.84;;;4.03;100.00
1832;BME280;1680;48.106;11.708;2022-12-07T05:03:39;95376.41;;;3.96;100.00
1832;BME280;1680;48.106;11.708;2022-12-07T05:06:07;95388.00;;;4.00;100.00
1832;BME280;1680;48.106;11.708;2022-12-07T05:08:34;95392.69;;;3.90;100.00
1832;BME280;1680;48.106;11.708;2022-12-07T05:11:04;95392.91;;;3.89;100.00
1832;BME280;1680;48.106;11.708;2022-12-07T05:13:32;95362.94;;;3.66;100.00
1832;BME280;1680;48.106;11.708;2022-12-07T05:15:59;95398.56;;;3.99;100.00
1832;BME280;1680;48.106;11.708;2022-12-07T05:18:26;95393.63;;;3.83;100.00
1832;BME280;1680;48.106;11.708;2022-12-07T05:20:54;95384.66;;;3.65;100.00
1832;BME280;1680;48.106;11.708;2022-12-07T05:23:21;95384.53;;;3.73;100.00
1832;BME280;1680;48.106;11.708;2022-12-07T05:25:48;95398.25;;;3.87;100.00
1832;BME280;1680;48.106;11.708;2022-12-07T05:28:16;95392.88;;;3.68;100.00
1832;BME280;1680;48.106;11.708;2022-12-07T05:30:44;95393.28;;;3.72;100.00
1832;BME280;1680;48.106;11.708;2022-12-07T05:33:11;95358.97;;;3.49;100.00
1832;BME280;1680;48.106;11.708;2022-12-07T05:35:38;95393.81;;;3.46;100.00
1832;BME280;1680;48.106;11.708;2022-12-07T05:38:05;95377.19;;;3.55;100.00
1832;BME280;1680;48.106;11.708;2022-12-07T05:40:32;95389.84;;;3.65;100.00
1832;BME280;1680;48.106;11.708;2022-12-07T05:42:59;95390.31;;;3.54;100.00
1832;BME280;1680;48.106;11.708;2022-12-07T05:45:28;95387.63;;;3.62;100.00
1832;BME280;1680;48.106;11.708;2022-12-07T05:47:55;95391.47;;;3.51;100.00
1832;BME280;1680;48.106;11.708;2022-12-07T05:50:22;95378.56;;;3.72;100.00
1832;BME280;1680;48.106;11.708;2022-12-07T05:52:49;95370.03;;;3.57;100.00
1832;BME280;1680;48.106;11.708;2022-12-07T05:55:16;95387.63;;;3.62;100.00
1832;BME280;1680;48.106;11.708;2022-12-07T05:57:43;95385.28;;;3.67;100.00
1832;BME280;1680;48.106;11.708;2022-12-07T06:00:32;95383.78;;;3.58;100.00
1832;BME280;1680;48.106;11.708;2022-12-07T06:02:58;95373.53;;;3.50;100.00
1832;BME280;1680;48.106;11.708;2022-12-07T06:05:25;95387.88;;;3.67;100.00
1832;BME280;1680;48.106;11.708;2022-12-07T06:07:52;95400.00;;;3.81;100.00
1832;BME280;1680;48.106;11.708;2022-12-07T06:10:19;95377.97;;;3.56;100.00
1832;BME280;1680;48.106;11.708;2022-12-07T06:12:47;95386.28;;;3.51;100.00
1832;BME280;1680;48.106;11.708;2022-12-07T06:15:13;95393.47;;;3.91;100.00
1832;BME280;1680;48.106;11.708;2022-12-07T06:17:41;95396.88;;;3.71;100.00
1832;BME280;1680;48.106;11.708;2022-12-07T06:20:09;95406.78;;;3.82;100.00
1832;BME280;1680;48.106;11.708;2022-12-07T06:22:36;95408.50;;;3.75;100.00
1832;BME280;1680;48.106;11.708;2022-12-07T06:25:03;95413.31;;;3.78;100.00
1832;BME280;1680;48.106;11.708;2022-12-07T06:27:32;95412.94;;;3.81;100.00
1832;BME280;1680;48.106;11.708;2022-12-07T06:30:00;95413.13;;;3.79;100.00
1832;BME280;1680;48.106;11.708;2022-12-07T06:32:31;95394.34;;;3.77;100.00
1832;BME280;1680;48.106;11.708;2022-12-07T06:35:00;95404.34;;;3.59;100.00
1832;BME280;1680;48.106;11.708;2022-12-07T06:37:27;95414.94;;;3.79;100.00
1832;BME280;1680;48.106;11.708;2022-12-07T06:39:54;95403.31;;;3.75;100.00
1832;BME280;1680;48.106;11.708;2022-12-07T06:42:22;95393.81;;;3.46;100.00
1832;BME280;1680;48.106;11.708;2022-12-07T06:44:49;95415.78;;;3.50;100.00
1832;BME280;1680;48.106;11.708;2022-12-07T06:47:16;95414.03;;;3.51;100.00
1832;BME280;1680;48.106;11.708;2022-12-07T06:49:43;95421.47;;;3.60;100.00
1832;BME280;1680;48.106;11.708;2022-12-07T06:52:11;95405.56;;;3.63;100.00
1832;BME280;1680;48.106;11.708;2022-12-07T06:54:44;95420.88;;;3.58;100.00
1832;BME280;1680;48.106;11.708;2022-12-07T06:57:11;95412.66;;;3.55;100.00
1832;BME280;1680;48.106;11.708;2022-12-07T06:59:39;95427.47;;;3.61;100.00
1832;BME280;1680;48.106;11.708;2022-12-07T07:02:07;95411.44;;;3.51;100.00
1832;BME280;1680;48.106;11.708;2022-12-07T07:04:34;95420.75;;;3.66;100.00
1832;BME280;1680;48.106;11.708;2022-12-07T07:07:01;95405.94;;;3.60;100.00
1832;BME280;1680;48.106;11.708;2022-12-07T07:09:30;95428.00;;;3.71;100.00
1832;BME280;1680;48.106;11.708;2022-12-07T07:11:57;95432.53;;;3.69;100.00
1832;BME280;1680;48.106;11.708;2022-12-07T07:14:24;95428.91;;;3.63;100.00
1832;BME280;1680;48.106;11.708;2022-12-07T07:16:51;95436.50;;;3.65;100.00
1832;BME280;1680;48.106;11.708;2022-12-07T07:19:18;95441.44;;;3.60;100.00
1832;BME280;1680;48.106;11.708;2022-12-07T07:21:45;95432.31;;;3.64;100.00
1832;BME280;1680;48.106;11.708;2022-12-07T07:24:12;95438.47;;;3.63;100.00
1832;BME280;1680;48.106;11.708;2022-12-07T07:26:41;95426.94;;;3.65;100.00
1832;BME280;1680;48.106;11.708;2022-12-07T07:29:08;95431.25;;;3.58;100.00
1832;BME280;1680;48.106;11.708;2022-12-07T07:31:35;95433.63;;;3.74;100.00
1832;BME280;1680;48.106;11.708;2022-12-07T07:34:02;95442.69;;;3.64;100.00
1832;BME280;1680;48.106;11.708;2022-12-07T07:36:29;95443.81;;;3.61;100.00
1832;BME280;1680;48.106;11.708;2022-12-07T07:38:56;95447.50;;;3.67;100.00
1832;BME280;1680;48.106;11.708;2022-12-07T07:41:24;95446.50;;;3.68;100.00
1832;BME280;1680;48.106;11.708;2022-12-07T07:43:52;95447.13;;;3.70;100.00
1832;BME280;1680;48.106;11.708;2022-12-07T07:46:19;95448.38;;;3.74;100.00
1832;BME280;1680;48.106;11.708;2022-12-07T07:48:46;95450.78;;;3.75;100.00
1832;BME280;1680;48.106;11.708;2022-12-07T07:51:13;95447.13;;;3.70;100.00
1832;BME280;1680;48.106;11.708;2022-12-07T07:53:40;95452.69;;;3.67;100.00
1832;BME280;1680;48.106;11.708;2022-12-07T07:56:08;95451.31;;;3.71;100.00
1832;BME280;1680;48.106;11.708;2022-12-07T07:58:35;95455.88;;;3.69;100.00
1832;BME280;1680;48.106;11.708;2022-12-07T08:01:08;95438.00;;;3.74;100.00
1832;BME280;1680;48.106;11.708;2022-12-07T08:03:35;95432.03;;;3.73;100.00
1832;BME280;1680;48.106;11.708;2022-12-07T08:06:03;95457.28;;;3.85;100.00
1832;BME280;1680;48.106;11.708;2022-12-07T08:08:30;95463.56;;;3.77;100.00
1832;BME280;1680;48.106;11.708;2022-12-07T08:10:57;95454.06;;;3.83;100.00
1832;BME280;1680;48.106;11.708;2022-12-07T08:13:26;95461.53;;;3.72;100.00
1832;BME280;1680;48.106;11.708;2022-12-07T08:15:53;95442.81;;;3.77;100.00
1832;BME280;1680;48.106;11.708;2022-12-07T08:18:22;95461.47;;;3.66;100.00
1832;BME280;1680;48.106;11.708;2022-12-07T08:20:49;95458.66;;;3.67;100.00
1832;BME280;1680;48.106;11.708;2022-12-07T08:23:16;95458.47;;;3.69;100.00
1832;BME280;1680;48.106;11.708;2022-12-07T08:25:43;95465.91;;;3.72;100.00
1832;BME280;1680;48.106;11.708;2022-12-07T08:28:10;95455.88;;;3.69;100.00
1832;BME280;1680;48.106;11.708;2022-12-07T08:30:37;95425.16;;;3.66;100.00
1832;BME280;1680;48.106;11.708;2022-12-07T08:33:04;95458.47;;;3.83;100.00
1832;BME280;1680;48.106;11.708;2022-12-07T08:35:33;95468.63;;;3.84;100.00
1832;BME280;1680;48.106;11.708;2022-12-07T08:38:01;95467.66;;;3.85;100.00
1832;BME280;1680;48.106;11.708;2022-12-07T08:40:28;95461.66;;;3.85;100.00
1832;BME280;1680;48.106;11.708;2022-12-07T08:42:56;95462.28;;;3.87;100.00
1832;BME280;1680;48.106;11.708;2022-12-07T08:45:23;95460.81;;;3.99;100.00
1832;BME280;1680;48.106;11.708;2022-12-07T08:47:53;95458.28;;;4.05;100.00
1832;BME280;1680;48.106;11.708;2022-12-07T08:50:22;95452.91;;;4.07;100.00
1832;BME280;1680;48.106;11.708;2022-12-07T08:52:54;95453.16;;;4.12;100.00
1832;BME280;1680;48.106;11.708;2022-12-07T08:55:22;95462.75;;;4.11;100.00
1832;BME280;1680;48.106;11.708;2022-12-07T08:57:49;95463.00;;;4.16;100.00
1832;BME280;1680;48.106;11.708;2022-12-07T09:00:17;95461.75;;;4.12;100.00
1832;BME280;1680;48.106;11.708;2022-12-07T09:02:45;95442.38;;;4.08;100.00
1832;BME280;1680;48.106;11.708;2022-12-07T09:05:15;95454.84;;;4.19;100.00
1832;BME280;1680;48.106;11.708;2022-12-07T09:07:43;95461.28;;;4.23;100.00
1832;BME280;1680;48.106;11.708;2022-12-07T09:10:13;95452.50;;;4.24;100.00
1832;BME280;1680;48.106;11.708;2022-12-07T09:12:40;95460.22;;;4.39;100.00
1832;BME280;1680;48.106;11.708;2022-12-07T09:15:08;95458.19;;;4.34;100.00
1832;BME280;1680;48.106;11.708;2022-12-07T09:17:35;95449.66;;;4.40;100.00
1832;BME280;1680;48.106;11.708;2022-12-07T09:20:04;95446.59;;;4.37;100.00
1832;BME280;1680;48.106;11.708;2022-12-07T09:22:32;95459.22;;;4.61;100.00
1832;BME280;1680;48.106;11.708;2022-12-07T09:24:59;95453.25;;;4.67;100.00
1832;BME280;1680;48.106;11.708;2022-12-07T09:27:28;95444.84;;;4.65;100.00
1832;BME280;1680;48.106;11.708;2022-12-07T09:29:55;95450.22;;;4.63;100.00
1832;BME280;1680;48.106;11.708;2022-12-07T09:32:22;95460.38;;;4.58;100.00
1832;BME280;1680;48.106;11.708;2022-12-07T09:34:51;95422.31;;;4.44;100.00
1832;BME280;1680;48.106;11.708;2022-12-07T09:37:19;95449.25;;;4.64;100.00
1832;BME280;1680;48.106;11.708;2022-12-07T09:39:46;95449.50;;;4.69;100.00
1832;BME280;1680;48.106;11.708;2022-12-07T09:42:25;95443.25;;;4.64;100.00
1832;BME280;1680;48.106;11.708;2022-12-07T09:44:55;95445.00;;;4.84;100.00
1832;BME280;1680;48.106;11.708;2022-12-07T09:47:24;95440.88;;;4.96;100.00
1832;BME280;1680;48.106;11.708;2022-12-07T09:49:51;95426.50;;;4.66;100.00
1832;BME280;1680;48.106;11.708;2022-12-07T09:52:25;95438.13;;;4.70;100.00
1832;BME280;1680;48.106;11.708;2022-12-07T09:54:54;95440.56;;;4.78;100.00
1832;BME280;1680;48.106;11.708;2022-12-07T09:57:27;95437.59;;;4.81;100.00
1832;BME280;1680;48.106;11.708;2022-12-07T10:00:01;95441.47;;;4.91;100.00
1832;BME280;1680;48.106;11.708;2022-12-07T10:02:36;95443.25;;;4.91;100.00
1832;BME280;1680;48.106;11.708;2022-12-07T10:05:05;95433.50;;;4.99;100.00
1832;BME280;1680;48.106;11.708;2022-12-07T10:07:33;95435.44;;;4.91;100.00
1832;BME280;1680;48.106;11.708;2022-12-07T10:10:03;95427.47;;;4.92;100.00
1832;BME280;1680;48.106;11.708;2022-12-07T10:12:52;95417.09;;;4.92;100.00
1832;BME280;1680;48.106;11.708;2022-12-07T10:15:20;95423.34;;;5.04;100.00
1832;BME280;1680;48.106;11.708;2022-12-07T10:17:49;95424.00;;;5.13;100.00
1832;BME280;1680;48.106;11.708;2022-12-07T10:20:20;95424.22;;;5.18;100.00
1832;BME280;1680;48.106;11.708;2022-12-07T10:22:57;95425.81;;;5.19;100.00
1832;BME280;1680;48.106;11.708;2022-12-07T10:25:27;95420.03;;;5.17;100.00
1832;BME280;1680;48.106;11.708;2022-12-07T10:27:58;95412.06;;;5.25;100.00
1832;BME280;1680;48.106;11.708;2022-12-07T10:30:28;95415.00;;;5.15;100.00
1832;BME280;1680;48.106;11.708;2022-12-07T10:32:56;95418.47;;;5.22;100.00
1832;BME280;1680;48.106;11.708;2022-12-07T10:35:26;95414.47;;;5.26;100.00
1832;BME280;1680;48.106;11.708;2022-12-07T10:37:55;95422.50;;;5.31;100.00
1832;BME280;1680;48.106;11.708;2022-12-07T10:40:28;95420.66;;;5.25;100.00
1832;BME280;1680;48.106;11.708;2022-12-07T10:43:17;95410.22;;;5.19;100.00
1832;BME280;1680;48.106;11.708;2022-12-07T10:46:20;95405.16;;;5.04;100.00
1832;BME280;1680;48.106;11.708;2022-12-07T10:49:00;95413.69;;;5.26;100.00
1832;BME280;1680;48.106;11.708;2022-12-07T10:51:38;95402.06;;;5.22;100.00
1832;BME280;1680;48.106;11.708;2022-12-07T10:54:16;95410.75;;;5.42;100.00
1832;BME280;1680;48.106;11.708;2022-12-07T10:57:01;95405.78;;;5.47;100.00
1832;BME280;1680;48.106;11.708;2022-12-07T10:59:49;95400.97;;;5.44;100.00
1832;BME280;1680;48.106;11.708;2022-12-07T11:02:49;95402.91;;;5.29;100.00
1832;BME280;1680;48.106;11.708;2022-12-07T11:05:24;95404.63;;;5.62;100.00
1832;BME280;1680;48.106;11.708;2022-12-07T11:08:00;95394.59;;;5.53;100.00
1832;BME280;1680;48.106;11.708;2022-12-07T11:10:39;95386.81;;;5.12;100.00
1832;BME280;1680;48.106;11.708;2022-12-07T11:13:22;95372.03;;;5.13;100.00
1832;BME280;1680;48.106;11.708;2022-12-07T11:16:05;95369.88;;;4.89;100.00
1832;BME280;1680;48.106;11.708;2022-12-07T11:18:43;95379.16;;;4.98;100.00
1832;BME280;1680;48.106;11.708;2022-12-07T11:21:20;95375.25;;;5.15;100.00
1832;BME280;1680;48.106;11.708;2022-12-07T11:23:58;95376.63;;;5.11;100.00
1832;BME280;1680;48.106;11.708;2022-12-07T11:26:53;95358.97;;;5.00;100.00
1832;BME280;1680;48.106;11.708;2022-12-07T11:29:44;95384.84;;;5.21;100.00
1832;BME280;1680;48.106;11.708;2022-12-07T11:32:18;95367.13;;;5.31;100.00
1832;BME280;1680;48.106;11.708;2022-12-07T11:34:59;95344.53;;;5.38;98.72
1832;BME280;1680;48.106;11.708;2022-12-07T11:37:32;95367.28;;;5.29;100.00
1832;BME280;1680;48.106;11.708;2022-12-07T11:40:03;95364.09;;;5.34;100.00
1832;BME280;1680;48.106;11.708;2022-12-07T11:42:35;95369.09;;;5.29;100.00
1832;BME280;1680;48.106;11.708;2022-12-07T11:45:13;95368.25;;;5.22;99.40
1832;BME280;1680;48.106;11.708;2022-12-07T11:47:46;95347.66;;;5.14;97.11
1832;BME280;1680;48.106;11.708;2022-12-07T11:50:24;95365.28;;;5.25;98.92
1832;BME280;1680;48.106;11.708;2022-12-07T11:52:55;95344.47;;;5.25;99.25
1832;BME280;1680;48.106;11.708;2022-12-07T11:55:28;95356.53;;;5.39;100.00
1832;BME280;1680;48.106;11.708;2022-12-07T11:58:03;95340.16;;;5.45;100.00
1832;BME280;1680;48.106;11.708;2022-12-07T12:00:37;95344.16;;;5.41;100.00
1832;BME280;1680;48.106;11.708;2022-12-07T12:03:12;95347.09;;;5.31;99.69
1832;BME280;1680;48.106;11.708;2022-12-07T12:05:41;95330.31;;;5.34;99.64
1832;BME280;1680;48.106;11.708;2022-12-07T12:08:13;95338.56;;;5.44;100.00
1832;BME280;1680;48.106;11.708;2022-12-07T12:10:52;95340.53;;;5.35;100.00
1832;BME280;1680;48.106;11.708;2022-12-07T12:13:34;95334.97;;;5.45;100.00
1832;BME280;1680;48.106;11.708;2022-12-07T12:16:37;95325.75;;;5.49;99.89
1832;BME280;1680;48.106;11.708;2022-12-07T12:19:18;95325.34;;;5.39;99.13
1832;BME280;1680;48.106;11.708;2022-12-07T12:21:55;95327.00;;;5.66;100.00
1832;BME280;1680;48.106;11.708;2022-12-07T12:24:25;95324.16;;;5.48;100.00
1832;BME280;1680;48.106;11.708;2022-12-07T12:26:56;95312.19;;;5.60;99.04
1832;BME280;1680;48.106;11.708;2022-12-07T12:29:28;95316.19;;;5.56;98.26
1832;BME280;1680;48.106;11.708;2022-12-07T12:32:13;95310.19;;;5.62;99.67
1832;BME280;1680;48.106;11.708;2022-12-07T12:34:59;95316.59;;;5.66;99.31
1832;BME280;1680;48.106;11.708;2022-12-07T12:37:44;95312.59;;;5.70;96.96
1832;BME280;1680;48.106;11.708;2022-12-07T12:40:48;95316.97;;;5.63;97.18
1832;BME280;1680;48.106;11.708;2022-12-07T12:43:41;95311.19;;;5.61;98.22
1832;BME280;1680;48.106;11.708;2022-12-07T12:46:37;95321.94;;;5.38;99.40
1832;BME280;1680;48.106;11.708;2022-12-07T12:51:57;95316.91;;;5.37;99.32
1832;BME280;1680;48.106;11.708;2022-12-07T12:54:27;95278.09;;;5.16;99.54
1832;BME280;1680;48.106;11.708;2022-12-07T12:56:59;95296.50;;;5.34;98.75
1832;BME280;1680;48.106;11.708;2022-12-07T12:59:34;95307.72;;;5.28;98.81
1832;BME280;1680;48.106;11.708;2022-12-07T13:02:16;95310.31;;;5.34;99.40
1832;BME280;1680;48.106;11.708;2022-12-07T13:04:55;95305.03;;;5.08;100.00
1832;BME280;1680;48.106;11.708;2022-12-07T13:07:54;95301.25;;;5.11;100.00
1832;BME280;1680;48.106;11.708;2022-12-07T13:10:40;95305.19;;;5.00;100.00
1832;BME280;1680;48.106;11.708;2022-12-07T13:13:30;95307.56;;;4.95;100.00
1832;BME280;1680;48.106;11.708;2022-12-07T13:18:58;95299.22;;;5.00;100.00
1832;BME280;1680;48.106;11.708;2022-12-07T13:21:43;95297.66;;;5.12;99.21
1832;BME280;1680;48.106;11.708;2022-12-07T13:24:12;95298.81;;;5.03;99.92
1832;BME280;1680;48.106;11.708;2022-12-07T13:26:42;95288.75;;;4.87;100.00
1832;BME280;1680;48.106;11.708;2022-12-07T13:29:12;95286.75;;;4.89;100.00
1832;BME280;1680;48.106;11.708;2022-12-07T13:31:41;95290.81;;;4.98;100.00
1832;BME280;1680;48.106;11.708;2022-12-07T13:34:30;95288.81;;;5.00;100.00
1832;BME280;1680;48.106;11.708;2022-12-07T13:36:58;95285.59;;;4.91;100.00
1832;BME280;1680;48.106;11.708;2022-12-07T13:39:28;95268.22;;;4.58;100.00
1832;BME280;1680;48.106;11.708;2022-12-07T13:41:58;95290.09;;;4.70;100.00